PWSweather.com
Personal Weather Stations
Station Observations
KOMOKA
Komoka Village, Komoka, ON N0L IRO

Komoka VillageKomoka, ON N0L IRO

Lat: 42.9542444, Lon: -81.4348861

Elevation: 805

Station Type: Davis Vantage Pro 2

www.komokaweather.com

High Low Average
Temperature 60.3°F15.7°C 37.6°F3.1°C 48.4°F9.1°C
Dew Point 45.7°F7.6°C 30.7°F-0.7°C 38.7°F3.7°C
Winds 5.0 mph 8.0 kmh Calm Calm 1.0 mph NE1.6 kmh NE
Wind Gusts 16.0 mph25.7 kmh -- 5.0 mph8.0 kmh
Humidity 77% 54% 70%
Pressure 30.18 in1022.0 mb 29.95 in1014.2 mb -
Precipitation 0.00 in0.0 mm - -
Hour Temp Dew Point Humidity Winds Wind Gusts Pressure Precip Precip Rate Daily Precip Total
12:01 AM 39.0°F3.9°C 31.8°F-0.1°C 75% Calm Calm -- 30.00 in1015.9 mb 0.00 in0.0 mm 0.00 in0.0 mm 0.00 in0.0 mm
12:08 AM 38.8°F3.8°C 31.6°F-0.2°C 75% Calm Calm -- 30.00 in1015.9 mb 0.00 in0.0 mm 0.00 in0.0 mm 0.00 in0.0 mm
12:15 AM 38.5°F3.6°C 31.1°F-0.5°C 75% Calm Calm -- 29.99 in1015.6 mb 0.00 in0.0 mm 0.00 in0.0 mm 0.00 in0.0 mm
12:22 AM 38.5°F3.6°C 31.6°F-0.2°C 76% Calm Calm -- 29.99 in1015.6 mb 0.00 in0.0 mm 0.00 in0.0 mm 0.00 in0.0 mm
12:29 AM 38.5°F3.6°C 31.3°F-0.4°C 75% Calm Calm -- 29.99 in1015.6 mb 0.00 in0.0 mm 0.00 in0.0 mm 0.00 in0.0 mm
12:36 AM 38.1°F3.4°C 31.3°F-0.4°C 76% Calm Calm -- 29.99 in1015.6 mb 0.00 in0.0 mm 0.00 in0.0 mm 0.00 in0.0 mm
12:43 AM 38.5°F3.6°C 31.5°F-0.3°C 76% Calm Calm -- 29.98 in1015.2 mb 0.00 in0.0 mm 0.00 in0.0 mm 0.00 in0.0 mm
12:50 AM 38.3°F3.5°C 31.5°F-0.3°C 76% Calm Calm -- 29.98 in1015.2 mb 0.00 in0.0 mm 0.00 in0.0 mm 0.00 in0.0 mm
01:20 AM 38.8°F3.8°C 31.8°F-0.1°C 76% Calm Calm -- 29.98 in1015.2 mb 0.00 in0.0 mm 0.00 in0.0 mm 0.00 in0.0 mm
01:27 AM 39.0°F3.9°C 32.2°F0.1°C 76% Calm Calm -- 29.98 in1015.2 mb 0.00 in0.0 mm 0.00 in0.0 mm 0.00 in0.0 mm
01:34 AM 39.2°F4.0°C 32.2°F0.1°C 76% Calm Calm -- 29.98 in1015.2 mb 0.00 in0.0 mm 0.00 in0.0 mm 0.00 in0.0 mm
01:41 AM 39.2°F4.0°C 32.0°F0.0°C 75% Calm Calm -- 29.98 in1015.2 mb 0.00 in0.0 mm 0.00 in0.0 mm 0.00 in0.0 mm
01:48 AM 38.7°F3.7°C 31.5°F-0.3°C 75% Calm Calm -- 29.98 in1015.2 mb 0.00 in0.0 mm 0.00 in0.0 mm 0.00 in0.0 mm
01:55 AM 38.3°F3.5°C 31.1°F-0.5°C 75% Calm Calm -- 29.98 in1015.2 mb 0.00 in0.0 mm 0.00 in0.0 mm 0.00 in0.0 mm
02:02 AM 38.3°F3.5°C 31.1°F-0.5°C 75% Calm Calm -- 29.98 in1015.2 mb 0.00 in0.0 mm 0.00 in0.0 mm 0.00 in0.0 mm
02:09 AM 38.1°F3.4°C 30.9°F-0.6°C 75% Calm Calm -- 29.97 in1014.9 mb 0.00 in0.0 mm 0.00 in0.0 mm 0.00 in0.0 mm
02:16 AM 37.8°F3.2°C 30.9°F-0.6°C 76% Calm Calm -- 29.97 in1014.9 mb 0.00 in0.0 mm 0.00 in0.0 mm 0.00 in0.0 mm
02:23 AM 38.3°F3.5°C 31.5°F-0.3°C 76% Calm Calm -- 29.97 in1014.9 mb 0.00 in0.0 mm 0.00 in0.0 mm 0.00 in0.0 mm
02:30 AM 38.1°F3.4°C 31.3°F-0.4°C 76% Calm Calm -- 29.97 in1014.9 mb 0.00 in0.0 mm 0.00 in0.0 mm 0.00 in0.0 mm
02:37 AM 38.3°F3.5°C 31.5°F-0.3°C 76% Calm Calm -- 29.97 in1014.9 mb 0.00 in0.0 mm 0.00 in0.0 mm 0.00 in0.0 mm
02:44 AM 38.8°F3.8°C 32.0°F0.0°C 76% Calm Calm -- 29.97 in1014.9 mb 0.00 in0.0 mm 0.00 in0.0 mm 0.00 in0.0 mm
02:51 AM 38.5°F3.6°C 31.6°F-0.2°C 76% Calm Calm -- 29.96 in1014.6 mb 0.00 in0.0 mm 0.00 in0.0 mm 0.00 in0.0 mm
02:58 AM 38.3°F3.5°C 31.5°F-0.3°C 76% Calm Calm -- 29.96 in1014.6 mb 0.00 in0.0 mm 0.00 in0.0 mm 0.00 in0.0 mm
03:05 AM 38.8°F3.8°C 32.0°F0.0°C 76% Calm Calm -- 29.96 in1014.6 mb 0.00 in0.0 mm 0.00 in0.0 mm 0.00 in0.0 mm
03:12 AM 38.3°F3.5°C 31.5°F-0.3°C 76% Calm Calm -- 29.96 in1014.6 mb 0.00 in0.0 mm 0.00 in0.0 mm 0.00 in0.0 mm
03:19 AM 38.5°F3.6°C 31.6°F-0.2°C 76% Calm Calm -- 29.96 in1014.6 mb 0.00 in0.0 mm 0.00 in0.0 mm 0.00 in0.0 mm
03:26 AM 38.7°F3.7°C 31.8°F-0.1°C 76% Calm Calm -- 29.96 in1014.6 mb 0.00 in0.0 mm 0.00 in0.0 mm 0.00 in0.0 mm
03:33 AM 38.8°F3.8°C 31.8°F-0.1°C 76% Calm Calm -- 29.96 in1014.6 mb 0.00 in0.0 mm 0.00 in0.0 mm 0.00 in0.0 mm
03:40 AM 38.7°F3.7°C 31.8°F-0.1°C 76% Calm Calm -- 29.96 in1014.6 mb 0.00 in0.0 mm 0.00 in0.0 mm 0.00 in0.0 mm
03:47 AM 38.3°F3.5°C 31.5°F-0.3°C 76% Calm Calm -- 29.96 in1014.6 mb 0.00 in0.0 mm 0.00 in0.0 mm 0.00 in0.0 mm
03:54 AM 37.9°F3.3°C 31.1°F-0.5°C 76% Calm Calm -- 29.96 in1014.6 mb 0.00 in0.0 mm 0.00 in0.0 mm 0.00 in0.0 mm
04:01 AM 38.1°F3.4°C 31.3°F-0.4°C 76% Calm Calm -- 29.96 in1014.6 mb 0.00 in0.0 mm 0.00 in0.0 mm 0.00 in0.0 mm
04:08 AM 38.5°F3.6°C 31.6°F-0.2°C 76% Calm Calm -- 29.96 in1014.6 mb 0.00 in0.0 mm 0.00 in0.0 mm 0.00 in0.0 mm
04:15 AM 38.8°F3.8°C 31.8°F-0.1°C 76% Calm Calm -- 29.95 in1014.2 mb 0.00 in0.0 mm 0.00 in0.0 mm 0.00 in0.0 mm
04:22 AM 38.1°F3.4°C 31.3°F-0.4°C 76% Calm Calm -- 29.95 in1014.2 mb 0.00 in0.0 mm 0.00 in0.0 mm 0.00 in0.0 mm
04:29 AM 37.8°F3.2°C 30.9°F-0.6°C 76% Calm Calm -- 29.96 in1014.6 mb 0.00 in0.0 mm 0.00 in0.0 mm 0.00 in0.0 mm
04:36 AM 37.8°F3.2°C 30.7°F-0.7°C 76% Calm Calm -- 29.96 in1014.6 mb 0.00 in0.0 mm 0.00 in0.0 mm 0.00 in0.0 mm
04:43 AM 37.6°F3.1°C 30.7°F-0.7°C 76% Calm Calm -- 29.95 in1014.2 mb 0.00 in0.0 mm 0.00 in0.0 mm 0.00 in0.0 mm
04:50 AM 38.1°F3.4°C 31.3°F-0.4°C 76% Calm Calm -- 29.95 in1014.2 mb 0.00 in0.0 mm 0.00 in0.0 mm 0.00 in0.0 mm
04:57 AM 38.3°F3.5°C 31.5°F-0.3°C 76% Calm Calm -- 29.96 in1014.6 mb 0.00 in0.0 mm 0.00 in0.0 mm 0.00 in0.0 mm
05:04 AM 39.0°F3.9°C 32.0°F0.0°C 76% Calm Calm -- 29.96 in1014.6 mb 0.00 in0.0 mm 0.00 in0.0 mm 0.00 in0.0 mm
05:11 AM 38.7°F3.7°C 31.8°F-0.1°C 76% Calm Calm -- 29.96 in1014.6 mb 0.00 in0.0 mm 0.00 in0.0 mm 0.00 in0.0 mm
05:18 AM 38.3°F3.5°C 31.5°F-0.3°C 76% Calm Calm -- 29.96 in1014.6 mb 0.00 in0.0 mm 0.00 in0.0 mm 0.00 in0.0 mm
05:25 AM 38.7°F3.7°C 31.8°F-0.1°C 76% Calm Calm -- 29.97 in1014.9 mb 0.00 in0.0 mm 0.00 in0.0 mm 0.00 in0.0 mm
05:32 AM 38.3°F3.5°C 31.5°F-0.3°C 76% Calm Calm -- 29.97 in1014.9 mb 0.00 in0.0 mm 0.00 in0.0 mm 0.00 in0.0 mm
05:39 AM 37.9°F3.3°C 31.1°F-0.5°C 76% Calm Calm -- 29.97 in1014.9 mb 0.00 in0.0 mm 0.00 in0.0 mm 0.00 in0.0 mm
05:46 AM 38.5°F3.6°C 31.6°F-0.2°C 76% Calm Calm -- 29.98 in1015.2 mb 0.00 in0.0 mm 0.00 in0.0 mm 0.00 in0.0 mm
05:53 AM 37.9°F3.3°C 30.9°F-0.6°C 76% Calm Calm -- 29.97 in1014.9 mb 0.00 in0.0 mm 0.00 in0.0 mm 0.00 in0.0 mm
06:00 AM 37.9°F3.3°C 31.1°F-0.5°C 76% Calm Calm -- 29.97 in1014.9 mb 0.00 in0.0 mm 0.00 in0.0 mm 0.00 in0.0 mm
06:07 AM 38.3°F3.5°C 31.5°F-0.3°C 76% Calm Calm -- 29.97 in1014.9 mb 0.00 in0.0 mm 0.00 in0.0 mm 0.00 in0.0 mm
06:14 AM 38.7°F3.7°C 31.6°F-0.2°C 76% Calm Calm -- 29.97 in1014.9 mb 0.00 in0.0 mm 0.00 in0.0 mm 0.00 in0.0 mm
06:21 AM 39.7°F4.3°C 32.7°F0.4°C 76% Calm Calm 1.0 mph1.6 kmh 29.98 in1015.2 mb 0.00 in0.0 mm 0.00 in0.0 mm 0.00 in0.0 mm
06:28 AM 39.6°F4.2°C 32.5°F0.3°C 76% Calm Calm -- 29.97 in1014.9 mb 0.00 in0.0 mm 0.00 in0.0 mm 0.00 in0.0 mm
06:35 AM 39.2°F4.0°C 32.2°F0.1°C 76% Calm Calm -- 29.97 in1014.9 mb 0.00 in0.0 mm 0.00 in0.0 mm 0.00 in0.0 mm
06:42 AM 39.6°F4.2°C 32.5°F0.3°C 76% Calm Calm -- 29.97 in1014.9 mb 0.00 in0.0 mm 0.00 in0.0 mm 0.00 in0.0 mm
06:49 AM 40.6°F4.8°C 34.0°F1.1°C 77% Calm Calm 1.0 mph1.6 kmh 29.97 in1014.9 mb 0.00 in0.0 mm 0.00 in0.0 mm 0.00 in0.0 mm
06:56 AM 40.5°F4.7°C 33.4°F0.8°C 76% Calm Calm -- 29.97 in1014.9 mb 0.00 in0.0 mm 0.00 in0.0 mm 0.00 in0.0 mm
07:03 AM 41.5°F5.3°C 34.9°F1.6°C 77% Calm Calm 3.0 mph4.8 kmh 29.97 in1014.9 mb 0.00 in0.0 mm 0.00 in0.0 mm 0.00 in0.0 mm
07:10 AM 42.3°F5.7°C 35.6°F2.0°C 77% Calm Calm 3.0 mph4.8 kmh 29.97 in1014.9 mb 0.00 in0.0 mm 0.00 in0.0 mm 0.00 in0.0 mm
07:17 AM 42.6°F5.9°C 35.6°F2.0°C 76% Calm Calm -- 29.97 in1014.9 mb 0.00 in0.0 mm 0.00 in0.0 mm 0.00 in0.0 mm
07:24 AM 43.3°F6.3°C 36.3°F2.4°C 76% Calm Calm -- 29.98 in1015.2 mb 0.00 in0.0 mm 0.00 in0.0 mm 0.00 in0.0 mm
07:31 AM 44.1°F6.7°C 37.0°F2.8°C 76% Calm Calm 1.0 mph1.6 kmh 29.98 in1015.2 mb 0.00 in0.0 mm 0.00 in0.0 mm 0.00 in0.0 mm
07:38 AM 44.8°F7.1°C 37.8°F3.2°C 76% Calm Calm 1.0 mph1.6 kmh 29.99 in1015.6 mb 0.00 in0.0 mm 0.00 in0.0 mm 0.00 in0.0 mm
07:45 AM 45.1°F7.3°C 38.1°F3.4°C 76% Calm Calm 1.0 mph1.6 kmh 29.99 in1015.6 mb 0.00 in0.0 mm 0.00 in0.0 mm 0.00 in0.0 mm
07:52 AM 45.7°F7.6°C 38.5°F3.6°C 76% Calm Calm -- 29.99 in1015.6 mb 0.00 in0.0 mm 0.00 in0.0 mm 0.00 in0.0 mm
07:59 AM 46.0°F7.8°C 38.8°F3.8°C 76% Calm Calm -- 29.99 in1015.6 mb 0.00 in0.0 mm 0.00 in0.0 mm 0.00 in0.0 mm
08:06 AM 46.9°F8.3°C 39.7°F4.3°C 76% Calm Calm 3.0 mph4.8 kmh 29.99 in1015.6 mb 0.00 in0.0 mm 0.00 in0.0 mm 0.00 in0.0 mm
08:13 AM 47.5°F8.6°C 40.3°F4.6°C 76% Calm Calm 3.0 mph4.8 kmh 30.00 in1015.9 mb 0.00 in0.0 mm 0.00 in0.0 mm 0.00 in0.0 mm
08:20 AM 48.2°F9.0°C 41.0°F5.0°C 76% Calm Calm 1.0 mph1.6 kmh 30.00 in1015.9 mb 0.00 in0.0 mm 0.00 in0.0 mm 0.00 in0.0 mm
08:27 AM 48.6°F9.2°C 41.4°F5.2°C 76% Calm Calm 4.0 mph6.4 kmh 30.00 in1015.9 mb 0.00 in0.0 mm 0.00 in0.0 mm 0.00 in0.0 mm
08:34 AM 49.5°F9.7°C 42.1°F5.6°C 76% Calm Calm 4.0 mph6.4 kmh 30.00 in1015.9 mb 0.00 in0.0 mm 0.00 in0.0 mm 0.00 in0.0 mm
08:41 AM 50.0°F10.0°C 42.8°F6.0°C 76% Calm Calm 3.0 mph4.8 kmh 30.00 in1015.9 mb 0.00 in0.0 mm 0.00 in0.0 mm 0.00 in0.0 mm
08:48 AM 50.7°F10.4°C 43.5°F6.4°C 76% 1.0 mph SW1.6 kmh SW 4.0 mph6.4 kmh 30.00 in1015.9 mb 0.00 in0.0 mm 0.00 in0.0 mm 0.00 in0.0 mm
08:55 AM 51.3°F10.7°C 43.9°F6.6°C 76% Calm Calm 4.0 mph6.4 kmh 30.00 in1015.9 mb 0.00 in0.0 mm 0.00 in0.0 mm 0.00 in0.0 mm
09:02 AM 51.6°F10.9°C 44.2°F6.8°C 76% Calm Calm 4.0 mph6.4 kmh 30.00 in1015.9 mb 0.00 in0.0 mm 0.00 in0.0 mm 0.00 in0.0 mm
09:09 AM 52.0°F11.1°C 44.2°F6.8°C 75% Calm Calm 4.0 mph6.4 kmh 30.00 in1015.9 mb 0.00 in0.0 mm 0.00 in0.0 mm 0.00 in0.0 mm
09:16 AM 52.3°F11.3°C 44.6°F7.0°C 75% Calm Calm 3.0 mph4.8 kmh 30.00 in1015.9 mb 0.00 in0.0 mm 0.00 in0.0 mm 0.00 in0.0 mm
09:23 AM 52.5°F11.4°C 44.6°F7.0°C 74% Calm Calm 3.0 mph4.8 kmh 30.01 in1016.3 mb 0.00 in0.0 mm 0.00 in0.0 mm 0.00 in0.0 mm
09:30 AM 53.1°F11.7°C 44.6°F7.0°C 73% Calm Calm 3.0 mph4.8 kmh 30.01 in1016.3 mb 0.00 in0.0 mm 0.00 in0.0 mm 0.00 in0.0 mm
09:37 AM 53.6°F12.0°C 45.1°F7.3°C 73% Calm Calm 3.0 mph4.8 kmh 30.01 in1016.3 mb 0.00 in0.0 mm 0.00 in0.0 mm 0.00 in0.0 mm
09:44 AM 53.8°F12.1°C 44.6°F7.0°C 71% 1.0 mph NNW1.6 kmh NNW 4.0 mph6.4 kmh 30.01 in1016.3 mb 0.00 in0.0 mm 0.00 in0.0 mm 0.00 in0.0 mm
09:51 AM 54.3°F12.4°C 45.1°F7.3°C 71% 1.0 mph N1.6 kmh N 4.0 mph6.4 kmh 30.02 in1016.6 mb 0.00 in0.0 mm 0.00 in0.0 mm 0.00 in0.0 mm
09:58 AM 54.5°F12.5°C 45.0°F7.2°C 70% 1.0 mph NNW1.6 kmh NNW 5.0 mph8.0 kmh 30.02 in1016.6 mb 0.00 in0.0 mm 0.00 in0.0 mm 0.00 in0.0 mm
10:05 AM 54.5°F12.5°C 45.0°F7.2°C 70% 1.0 mph N1.6 kmh N 5.0 mph8.0 kmh 30.02 in1016.6 mb 0.00 in0.0 mm 0.00 in0.0 mm 0.00 in0.0 mm
10:12 AM 54.5°F12.5°C 44.6°F7.0°C 69% Calm Calm 4.0 mph6.4 kmh 30.02 in1016.6 mb 0.00 in0.0 mm 0.00 in0.0 mm 0.00 in0.0 mm
10:19 AM 54.7°F12.6°C 44.6°F7.0°C 69% 3.0 mph N4.8 kmh N 5.0 mph8.0 kmh 30.02 in1016.6 mb 0.00 in0.0 mm 0.00 in0.0 mm 0.00 in0.0 mm
10:26 AM 54.7°F12.6°C 44.8°F7.1°C 69% 3.0 mph N4.8 kmh N 5.0 mph8.0 kmh 30.02 in1016.6 mb 0.00 in0.0 mm 0.00 in0.0 mm 0.00 in0.0 mm
10:33 AM 55.0°F12.8°C 45.0°F7.2°C 69% 1.0 mph N1.6 kmh N 4.0 mph6.4 kmh 30.02 in1016.6 mb 0.00 in0.0 mm 0.00 in0.0 mm 0.00 in0.0 mm
10:40 AM 55.0°F12.8°C 44.8°F7.1°C 68% 1.0 mph N1.6 kmh N 7.0 mph11.3 kmh 30.02 in1016.6 mb 0.00 in0.0 mm 0.00 in0.0 mm 0.00 in0.0 mm
10:47 AM 55.2°F12.9°C 45.0°F7.2°C 68% 3.0 mph N4.8 kmh N 9.0 mph14.5 kmh 30.02 in1016.6 mb 0.00 in0.0 mm 0.00 in0.0 mm 0.00 in0.0 mm
10:54 AM 55.4°F13.0°C 45.0°F7.2°C 68% 3.0 mph N4.8 kmh N 8.0 mph12.9 kmh 30.03 in1016.9 mb 0.00 in0.0 mm 0.00 in0.0 mm 0.00 in0.0 mm
11:01 AM 55.6°F13.1°C 44.8°F7.1°C 67% 4.0 mph N6.4 kmh N 15.0 mph24.1 kmh 30.02 in1016.6 mb 0.00 in0.0 mm 0.00 in0.0 mm 0.00 in0.0 mm
11:08 AM 55.8°F13.2°C 45.0°F7.2°C 67% 4.0 mph N6.4 kmh N 15.0 mph24.1 kmh 30.03 in1016.9 mb 0.00 in0.0 mm 0.00 in0.0 mm 0.00 in0.0 mm
11:15 AM 56.3°F13.5°C 45.1°F7.3°C 66% 3.0 mph N4.8 kmh N 5.0 mph8.0 kmh 30.03 in1016.9 mb 0.00 in0.0 mm 0.00 in0.0 mm 0.00 in0.0 mm
11:22 AM 57.4°F14.1°C 45.7°F7.6°C 65% 1.0 mph N1.6 kmh N 7.0 mph11.3 kmh 30.03 in1016.9 mb 0.00 in0.0 mm 0.00 in0.0 mm 0.00 in0.0 mm
11:29 AM 58.1°F14.5°C 45.1°F7.3°C 62% 1.0 mph N1.6 kmh N 8.0 mph12.9 kmh 30.03 in1016.9 mb 0.00 in0.0 mm 0.00 in0.0 mm 0.00 in0.0 mm
11:36 AM 58.1°F14.5°C 45.5°F7.5°C 63% 3.0 mph NNW4.8 kmh NNW 8.0 mph12.9 kmh 30.03 in1016.9 mb 0.00 in0.0 mm 0.00 in0.0 mm 0.00 in0.0 mm
11:43 AM 57.6°F14.2°C 45.1°F7.3°C 63% 1.0 mph NNW1.6 kmh NNW 7.0 mph11.3 kmh 30.03 in1016.9 mb 0.00 in0.0 mm 0.00 in0.0 mm 0.00 in0.0 mm
11:50 AM 57.9°F14.4°C 45.0°F7.2°C 62% 3.0 mph N4.8 kmh N 16.0 mph25.7 kmh 30.03 in1016.9 mb 0.00 in0.0 mm 0.00 in0.0 mm 0.00 in0.0 mm
11:57 AM 57.7°F14.3°C 44.8°F7.1°C 62% 5.0 mph N8.0 kmh N 16.0 mph25.7 kmh 30.03 in1016.9 mb 0.00 in0.0 mm 0.00 in0.0 mm 0.00 in0.0 mm
12:04 PM 57.9°F14.4°C 45.0°F7.2°C 62% 4.0 mph N6.4 kmh N 9.0 mph14.5 kmh 30.03 in1016.9 mb 0.00 in0.0 mm 0.00 in0.0 mm 0.00 in0.0 mm
12:11 PM 57.9°F14.4°C 44.6°F7.0°C 61% 3.0 mph N4.8 kmh N 9.0 mph14.5 kmh 30.04 in1017.3 mb 0.00 in0.0 mm 0.00 in0.0 mm 0.00 in0.0 mm
12:18 PM 57.7°F14.3°C 43.9°F6.6°C 60% 5.0 mph N8.0 kmh N 13.0 mph20.9 kmh 30.04 in1017.3 mb 0.00 in0.0 mm 0.00 in0.0 mm 0.00 in0.0 mm
12:25 PM 57.7°F14.3°C 43.9°F6.6°C 60% 5.0 mph N8.0 kmh N 12.0 mph19.3 kmh 30.04 in1017.3 mb 0.00 in0.0 mm 0.00 in0.0 mm 0.00 in0.0 mm
12:32 PM 58.6°F14.8°C 44.2°F6.8°C 59% 4.0 mph N6.4 kmh N 12.0 mph19.3 kmh 30.04 in1017.3 mb 0.00 in0.0 mm 0.00 in0.0 mm 0.00 in0.0 mm
12:39 PM 58.5°F14.7°C 43.3°F6.3°C 57% 4.0 mph N6.4 kmh N 15.0 mph24.1 kmh 30.04 in1017.3 mb 0.00 in0.0 mm 0.00 in0.0 mm 0.00 in0.0 mm
12:46 PM 58.6°F14.8°C 44.4°F6.9°C 59% 4.0 mph N6.4 kmh N 15.0 mph24.1 kmh 30.04 in1017.3 mb 0.00 in0.0 mm 0.00 in0.0 mm 0.00 in0.0 mm
12:53 PM 58.3°F14.6°C 44.1°F6.7°C 59% 4.0 mph N6.4 kmh N 9.0 mph14.5 kmh 30.04 in1017.3 mb 0.00 in0.0 mm 0.00 in0.0 mm 0.00 in0.0 mm
01:00 PM 58.6°F14.8°C 43.9°F6.6°C 58% 4.0 mph N6.4 kmh N 9.0 mph14.5 kmh 30.03 in1016.9 mb 0.00 in0.0 mm 0.00 in0.0 mm 0.00 in0.0 mm
01:07 PM 59.4°F15.2°C 44.1°F6.7°C 57% 3.0 mph N4.8 kmh N 8.0 mph12.9 kmh 30.03 in1016.9 mb 0.00 in0.0 mm 0.00 in0.0 mm 0.00 in0.0 mm
01:14 PM 59.2°F15.1°C 44.2°F6.8°C 58% 4.0 mph N6.4 kmh N 12.0 mph19.3 kmh 30.04 in1017.3 mb 0.00 in0.0 mm 0.00 in0.0 mm 0.00 in0.0 mm
01:21 PM 59.2°F15.1°C 44.4°F6.9°C 58% 4.0 mph N6.4 kmh N 13.0 mph20.9 kmh 30.03 in1016.9 mb 0.00 in0.0 mm 0.00 in0.0 mm 0.00 in0.0 mm
01:28 PM 59.4°F15.2°C 43.7°F6.5°C 56% 4.0 mph N6.4 kmh N 13.0 mph20.9 kmh 30.03 in1016.9 mb 0.00 in0.0 mm 0.00 in0.0 mm 0.00 in0.0 mm
01:35 PM 59.5°F15.3°C 43.7°F6.5°C 56% 3.0 mph N4.8 kmh N 7.0 mph11.3 kmh 30.03 in1016.9 mb 0.00 in0.0 mm 0.00 in0.0 mm 0.00 in0.0 mm
01:42 PM 59.4°F15.2°C 43.7°F6.5°C 56% 3.0 mph NW4.8 kmh NW 7.0 mph11.3 kmh 30.03 in1016.9 mb 0.00 in0.0 mm 0.00 in0.0 mm 0.00 in0.0 mm
01:49 PM 59.5°F15.3°C 43.3°F6.3°C 55% 3.0 mph SW4.8 kmh SW 12.0 mph19.3 kmh 30.03 in1016.9 mb 0.00 in0.0 mm 0.00 in0.0 mm 0.00 in0.0 mm
01:56 PM 59.7°F15.4°C 44.1°F6.7°C 56% 4.0 mph SW6.4 kmh SW 12.0 mph19.3 kmh 30.03 in1016.9 mb 0.00 in0.0 mm 0.00 in0.0 mm 0.00 in0.0 mm
02:03 PM 59.5°F15.3°C 43.9°F6.6°C 56% 4.0 mph SW6.4 kmh SW 9.0 mph14.5 kmh 30.03 in1016.9 mb 0.00 in0.0 mm 0.00 in0.0 mm 0.00 in0.0 mm
02:10 PM 59.7°F15.4°C 44.1°F6.7°C 56% 3.0 mph W4.8 kmh W 8.0 mph12.9 kmh 30.03 in1016.9 mb 0.00 in0.0 mm 0.00 in0.0 mm 0.00 in0.0 mm
02:17 PM 59.9°F15.5°C 44.2°F6.8°C 56% 3.0 mph SSW4.8 kmh SSW 5.0 mph8.0 kmh 30.02 in1016.6 mb 0.00 in0.0 mm 0.00 in0.0 mm 0.00 in0.0 mm
02:24 PM 60.1°F15.6°C 43.9°F6.6°C 55% 3.0 mph SW4.8 kmh SW 9.0 mph14.5 kmh 30.02 in1016.6 mb 0.00 in0.0 mm 0.00 in0.0 mm 0.00 in0.0 mm
02:31 PM 60.3°F15.7°C 43.5°F6.4°C 54% 3.0 mph SW4.8 kmh SW 9.0 mph14.5 kmh 30.02 in1016.6 mb 0.00 in0.0 mm 0.00 in0.0 mm 0.00 in0.0 mm
02:38 PM 60.1°F15.6°C 43.7°F6.5°C 55% 3.0 mph SW4.8 kmh SW 5.0 mph8.0 kmh 30.03 in1016.9 mb 0.00 in0.0 mm 0.00 in0.0 mm 0.00 in0.0 mm
02:45 PM 59.9°F15.5°C 43.7°F6.5°C 55% 3.0 mph SW4.8 kmh SW 8.0 mph12.9 kmh 30.03 in1016.9 mb 0.00 in0.0 mm 0.00 in0.0 mm 0.00 in0.0 mm
02:52 PM 59.9°F15.5°C 43.7°F6.5°C 55% 3.0 mph SW4.8 kmh SW 8.0 mph12.9 kmh 30.03 in1016.9 mb 0.00 in0.0 mm 0.00 in0.0 mm 0.00 in0.0 mm
02:59 PM 59.9°F15.5°C 44.2°F6.8°C 56% 3.0 mph SW4.8 kmh SW 8.0 mph12.9 kmh 30.03 in1016.9 mb 0.00 in0.0 mm 0.00 in0.0 mm 0.00 in0.0 mm
03:06 PM 59.7°F15.4°C 44.1°F6.7°C 56% 1.0 mph SW1.6 kmh SW 4.0 mph6.4 kmh 30.03 in1016.9 mb 0.00 in0.0 mm 0.00 in0.0 mm 0.00 in0.0 mm
03:13 PM 59.9°F15.5°C 44.2°F6.8°C 56% 3.0 mph SW4.8 kmh SW 7.0 mph11.3 kmh 30.03 in1016.9 mb 0.00 in0.0 mm 0.00 in0.0 mm 0.00 in0.0 mm
03:20 PM 59.4°F15.2°C 43.7°F6.5°C 56% 3.0 mph N4.8 kmh N 7.0 mph11.3 kmh 30.04 in1017.3 mb 0.00 in0.0 mm 0.00 in0.0 mm 0.00 in0.0 mm
03:27 PM 59.4°F15.2°C 43.5°F6.4°C 56% 3.0 mph N4.8 kmh N 9.0 mph14.5 kmh 30.05 in1017.6 mb 0.00 in0.0 mm 0.00 in0.0 mm 0.00 in0.0 mm
03:34 PM 59.2°F15.1°C 43.5°F6.4°C 56% 4.0 mph N6.4 kmh N 11.0 mph17.7 kmh 30.05 in1017.6 mb 0.00 in0.0 mm 0.00 in0.0 mm 0.00 in0.0 mm
03:41 PM 58.8°F14.9°C 43.2°F6.2°C 56% 4.0 mph N6.4 kmh N 11.0 mph17.7 kmh 30.05 in1017.6 mb 0.00 in0.0 mm 0.00 in0.0 mm 0.00 in0.0 mm
03:48 PM 58.6°F14.8°C 43.0°F6.1°C 56% 4.0 mph N6.4 kmh N 11.0 mph17.7 kmh 30.05 in1017.6 mb 0.00 in0.0 mm 0.00 in0.0 mm 0.00 in0.0 mm
03:55 PM 58.5°F14.7°C 43.3°F6.3°C 57% 4.0 mph N6.4 kmh N 12.0 mph19.3 kmh 30.05 in1017.6 mb 0.00 in0.0 mm 0.00 in0.0 mm 0.00 in0.0 mm
04:02 PM 58.3°F14.6°C 43.2°F6.2°C 57% 3.0 mph N4.8 kmh N 12.0 mph19.3 kmh 30.05 in1017.6 mb 0.00 in0.0 mm 0.00 in0.0 mm 0.00 in0.0 mm
04:09 PM 58.1°F14.5°C 43.3°F6.3°C 58% 1.0 mph N1.6 kmh N 5.0 mph8.0 kmh 30.06 in1017.9 mb 0.00 in0.0 mm 0.00 in0.0 mm 0.00 in0.0 mm
04:16 PM 57.9°F14.4°C 43.3°F6.3°C 58% 3.0 mph N4.8 kmh N 7.0 mph11.3 kmh 30.06 in1017.9 mb 0.00 in0.0 mm 0.00 in0.0 mm 0.00 in0.0 mm
04:23 PM 57.7°F14.3°C 43.2°F6.2°C 58% 3.0 mph N4.8 kmh N 7.0 mph11.3 kmh 30.07 in1018.3 mb 0.00 in0.0 mm 0.00 in0.0 mm 0.00 in0.0 mm
04:30 PM 57.7°F14.3°C 43.5°F6.4°C 59% 3.0 mph N4.8 kmh N 7.0 mph11.3 kmh 30.07 in1018.3 mb 0.00 in0.0 mm 0.00 in0.0 mm 0.00 in0.0 mm
04:37 PM 57.7°F14.3°C 43.5°F6.4°C 59% 3.0 mph N4.8 kmh N 7.0 mph11.3 kmh 30.07 in1018.3 mb 0.00 in0.0 mm 0.00 in0.0 mm 0.00 in0.0 mm
04:44 PM 56.7°F13.7°C 43.3°F6.3°C 61% 3.0 mph NNW4.8 kmh NNW 15.0 mph24.1 kmh 30.08 in1018.6 mb 0.00 in0.0 mm 0.00 in0.0 mm 0.00 in0.0 mm
04:51 PM 54.9°F12.7°C 43.0°F6.1°C 64% 3.0 mph NNW4.8 kmh NNW 8.0 mph12.9 kmh 30.07 in1018.3 mb 0.00 in0.0 mm 0.00 in0.0 mm 0.00 in0.0 mm
04:58 PM 53.8°F12.1°C 42.6°F5.9°C 66% 1.0 mph N1.6 kmh N 7.0 mph11.3 kmh 30.08 in1018.6 mb 0.00 in0.0 mm 0.00 in0.0 mm 0.00 in0.0 mm
05:05 PM 53.1°F11.7°C 42.3°F5.7°C 67% 1.0 mph N1.6 kmh N 5.0 mph8.0 kmh 30.08 in1018.6 mb 0.00 in0.0 mm 0.00 in0.0 mm 0.00 in0.0 mm
05:12 PM 52.3°F11.3°C 42.1°F5.6°C 68% 1.0 mph N1.6 kmh N 5.0 mph8.0 kmh 30.08 in1018.6 mb 0.00 in0.0 mm 0.00 in0.0 mm 0.00 in0.0 mm
05:19 PM 52.2°F11.2°C 41.9°F5.5°C 68% 1.0 mph N1.6 kmh N 5.0 mph8.0 kmh 30.09 in1019.0 mb 0.00 in0.0 mm 0.00 in0.0 mm 0.00 in0.0 mm
05:26 PM 52.0°F11.1°C 42.1°F5.6°C 69% 3.0 mph N4.8 kmh N 5.0 mph8.0 kmh 30.09 in1019.0 mb 0.00 in0.0 mm 0.00 in0.0 mm 0.00 in0.0 mm
05:33 PM 51.4°F10.8°C 41.7°F5.4°C 69% 3.0 mph N4.8 kmh N 7.0 mph11.3 kmh 30.09 in1019.0 mb 0.00 in0.0 mm 0.00 in0.0 mm 0.00 in0.0 mm
05:40 PM 51.3°F10.7°C 41.4°F5.2°C 69% 1.0 mph N1.6 kmh N 7.0 mph11.3 kmh 30.09 in1019.0 mb 0.00 in0.0 mm 0.00 in0.0 mm 0.00 in0.0 mm
05:47 PM 51.1°F10.6°C 41.2°F5.1°C 69% 1.0 mph N1.6 kmh N 5.0 mph8.0 kmh 30.09 in1019.0 mb 0.00 in0.0 mm 0.00 in0.0 mm 0.00 in0.0 mm
05:54 PM 50.9°F10.5°C 41.0°F5.0°C 69% 1.0 mph N1.6 kmh N 3.0 mph4.8 kmh 30.10 in1019.3 mb 0.00 in0.0 mm 0.00 in0.0 mm 0.00 in0.0 mm
06:01 PM 50.7°F10.4°C 41.2°F5.1°C 70% 1.0 mph N1.6 kmh N 4.0 mph6.4 kmh 30.11 in1019.6 mb 0.00 in0.0 mm 0.00 in0.0 mm 0.00 in0.0 mm
06:08 PM 50.4°F10.2°C 41.0°F5.0°C 70% 1.0 mph N1.6 kmh N 5.0 mph8.0 kmh 30.11 in1019.6 mb 0.00 in0.0 mm 0.00 in0.0 mm 0.00 in0.0 mm
06:15 PM 50.2°F10.1°C 40.6°F4.8°C 70% 1.0 mph N1.6 kmh N 8.0 mph12.9 kmh 30.11 in1019.6 mb 0.00 in0.0 mm 0.00 in0.0 mm 0.00 in0.0 mm
06:22 PM 49.8°F9.9°C 40.5°F4.7°C 70% 3.0 mph N4.8 kmh N 8.0 mph12.9 kmh 30.11 in1019.6 mb 0.00 in0.0 mm 0.00 in0.0 mm 0.00 in0.0 mm
06:29 PM 49.5°F9.7°C 40.1°F4.5°C 70% 3.0 mph N4.8 kmh N 7.0 mph11.3 kmh 30.11 in1019.6 mb 0.00 in0.0 mm 0.00 in0.0 mm 0.00 in0.0 mm
06:36 PM 49.3°F9.6°C 39.9°F4.4°C 70% 3.0 mph N4.8 kmh N 8.0 mph12.9 kmh 30.12 in1020.0 mb 0.00 in0.0 mm 0.00 in0.0 mm 0.00 in0.0 mm
06:43 PM 49.1°F9.5°C 39.7°F4.3°C 70% 3.0 mph N4.8 kmh N 9.0 mph14.5 kmh 30.12 in1020.0 mb 0.00 in0.0 mm 0.00 in0.0 mm 0.00 in0.0 mm
06:50 PM 48.9°F9.4°C 39.6°F4.2°C 70% 4.0 mph N6.4 kmh N 9.0 mph14.5 kmh 30.12 in1020.0 mb 0.00 in0.0 mm 0.00 in0.0 mm 0.00 in0.0 mm
06:57 PM 48.7°F9.3°C 39.4°F4.1°C 70% 3.0 mph N4.8 kmh N 9.0 mph14.5 kmh 30.13 in1020.3 mb 0.00 in0.0 mm 0.00 in0.0 mm 0.00 in0.0 mm
07:04 PM 48.6°F9.2°C 39.2°F4.0°C 70% 4.0 mph N6.4 kmh N 8.0 mph12.9 kmh 30.13 in1020.3 mb 0.00 in0.0 mm 0.00 in0.0 mm 0.00 in0.0 mm
07:11 PM 48.4°F9.1°C 39.0°F3.9°C 70% 4.0 mph N6.4 kmh N 11.0 mph17.7 kmh 30.14 in1020.7 mb 0.00 in0.0 mm 0.00 in0.0 mm 0.00 in0.0 mm
07:18 PM 48.0°F8.9°C 38.8°F3.8°C 70% 3.0 mph N4.8 kmh N 9.0 mph14.5 kmh 30.14 in1020.7 mb 0.00 in0.0 mm 0.00 in0.0 mm 0.00 in0.0 mm
07:25 PM 47.8°F8.8°C 38.7°F3.7°C 70% 4.0 mph N6.4 kmh N 12.0 mph19.3 kmh 30.14 in1020.7 mb 0.00 in0.0 mm 0.00 in0.0 mm 0.00 in0.0 mm
07:32 PM 47.7°F8.7°C 38.5°F3.6°C 70% 4.0 mph N6.4 kmh N 12.0 mph19.3 kmh 30.14 in1020.7 mb 0.00 in0.0 mm 0.00 in0.0 mm 0.00 in0.0 mm
07:39 PM 47.5°F8.6°C 38.5°F3.6°C 71% 3.0 mph N4.8 kmh N 8.0 mph12.9 kmh 30.14 in1020.7 mb 0.00 in0.0 mm 0.00 in0.0 mm 0.00 in0.0 mm
07:46 PM 47.5°F8.6°C 38.5°F3.6°C 71% 3.0 mph N4.8 kmh N 8.0 mph12.9 kmh 30.14 in1020.7 mb 0.00 in0.0 mm 0.00 in0.0 mm 0.00 in0.0 mm
07:53 PM 47.5°F8.6°C 38.8°F3.8°C 72% 1.0 mph N1.6 kmh N 7.0 mph11.3 kmh 30.14 in1020.7 mb 0.00 in0.0 mm 0.00 in0.0 mm 0.00 in0.0 mm
08:00 PM 47.5°F8.6°C 38.5°F3.6°C 71% 1.0 mph N1.6 kmh N 5.0 mph8.0 kmh 30.15 in1021.0 mb 0.00 in0.0 mm 0.00 in0.0 mm 0.00 in0.0 mm
08:07 PM 47.3°F8.5°C 38.3°F3.5°C 71% 1.0 mph N1.6 kmh N 9.0 mph14.5 kmh 30.15 in1021.0 mb 0.00 in0.0 mm 0.00 in0.0 mm 0.00 in0.0 mm
08:14 PM 47.3°F8.5°C 38.3°F3.5°C 71% 1.0 mph N1.6 kmh N 9.0 mph14.5 kmh 30.15 in1021.0 mb 0.00 in0.0 mm 0.00 in0.0 mm 0.00 in0.0 mm
08:21 PM 47.3°F8.5°C 38.3°F3.5°C 71% 1.0 mph N1.6 kmh N 7.0 mph11.3 kmh 30.15 in1021.0 mb 0.00 in0.0 mm 0.00 in0.0 mm 0.00 in0.0 mm
08:28 PM 47.3°F8.5°C 38.3°F3.5°C 71% 3.0 mph N4.8 kmh N 7.0 mph11.3 kmh 30.15 in1021.0 mb 0.00 in0.0 mm 0.00 in0.0 mm 0.00 in0.0 mm
08:35 PM 47.3°F8.5°C 38.3°F3.5°C 71% 3.0 mph N4.8 kmh N 5.0 mph8.0 kmh 30.16 in1021.3 mb 0.00 in0.0 mm 0.00 in0.0 mm 0.00 in0.0 mm
08:42 PM 47.3°F8.5°C 38.3°F3.5°C 71% 3.0 mph N4.8 kmh N 7.0 mph11.3 kmh 30.16 in1021.3 mb 0.00 in0.0 mm 0.00 in0.0 mm 0.00 in0.0 mm
08:49 PM 47.3°F8.5°C 38.3°F3.5°C 71% 4.0 mph N6.4 kmh N 8.0 mph12.9 kmh 30.16 in1021.3 mb 0.00 in0.0 mm 0.00 in0.0 mm 0.00 in0.0 mm
08:56 PM 47.1°F8.4°C 38.3°F3.5°C 71% 3.0 mph N4.8 kmh N 8.0 mph12.9 kmh 30.16 in1021.3 mb 0.00 in0.0 mm 0.00 in0.0 mm 0.00 in0.0 mm
09:03 PM 47.1°F8.4°C 38.7°F3.7°C 72% 1.0 mph N1.6 kmh N 5.0 mph8.0 kmh 30.16 in1021.3 mb 0.00 in0.0 mm 0.00 in0.0 mm 0.00 in0.0 mm
09:10 PM 46.9°F8.3°C 38.5°F3.6°C 72% 1.0 mph N1.6 kmh N 4.0 mph6.4 kmh 30.16 in1021.3 mb 0.00 in0.0 mm 0.00 in0.0 mm 0.00 in0.0 mm
09:17 PM 46.9°F8.3°C 38.5°F3.6°C 72% 1.0 mph N1.6 kmh N 4.0 mph6.4 kmh 30.16 in1021.3 mb 0.00 in0.0 mm 0.00 in0.0 mm 0.00 in0.0 mm
09:24 PM 46.9°F8.3°C 38.5°F3.6°C 72% 1.0 mph N1.6 kmh N 5.0 mph8.0 kmh 30.16 in1021.3 mb 0.00 in0.0 mm 0.00 in0.0 mm 0.00 in0.0 mm
09:31 PM 46.8°F8.2°C 38.3°F3.5°C 72% 1.0 mph N1.6 kmh N 7.0 mph11.3 kmh 30.17 in1021.7 mb 0.00 in0.0 mm 0.00 in0.0 mm 0.00 in0.0 mm
09:38 PM 46.8°F8.2°C 38.1°F3.4°C 72% 3.0 mph N4.8 kmh N 8.0 mph12.9 kmh 30.17 in1021.7 mb 0.00 in0.0 mm 0.00 in0.0 mm 0.00 in0.0 mm
09:45 PM 46.6°F8.1°C 37.8°F3.2°C 71% 3.0 mph N4.8 kmh N 8.0 mph12.9 kmh 30.17 in1021.7 mb 0.00 in0.0 mm 0.00 in0.0 mm 0.00 in0.0 mm
09:52 PM 46.6°F8.1°C 38.1°F3.4°C 72% 1.0 mph N1.6 kmh N 5.0 mph8.0 kmh 30.17 in1021.7 mb 0.00 in0.0 mm 0.00 in0.0 mm 0.00 in0.0 mm
09:59 PM 46.6°F8.1°C 37.6°F3.1°C 71% 3.0 mph N4.8 kmh N 5.0 mph8.0 kmh 30.16 in1021.3 mb 0.00 in0.0 mm 0.00 in0.0 mm 0.00 in0.0 mm
10:06 PM 46.6°F8.1°C 37.9°F3.3°C 72% 1.0 mph N1.6 kmh N 5.0 mph8.0 kmh 30.17 in1021.7 mb 0.00 in0.0 mm 0.00 in0.0 mm 0.00 in0.0 mm
10:13 PM 46.6°F8.1°C 38.1°F3.4°C 72% 1.0 mph N1.6 kmh N 4.0 mph6.4 kmh 30.17 in1021.7 mb 0.00 in0.0 mm 0.00 in0.0 mm 0.00 in0.0 mm
10:20 PM 46.6°F8.1°C 37.9°F3.3°C 72% 1.0 mph N1.6 kmh N 4.0 mph6.4 kmh 30.16 in1021.3 mb 0.00 in0.0 mm 0.00 in0.0 mm 0.00 in0.0 mm
10:27 PM 46.6°F8.1°C 37.9°F3.3°C 72% 1.0 mph N1.6 kmh N 5.0 mph8.0 kmh 30.16 in1021.3 mb 0.00 in0.0 mm 0.00 in0.0 mm 0.00 in0.0 mm
10:34 PM 46.6°F8.1°C 37.9°F3.3°C 72% 1.0 mph N1.6 kmh N 4.0 mph6.4 kmh 30.17 in1021.7 mb 0.00 in0.0 mm 0.00 in0.0 mm 0.00 in0.0 mm
10:41 PM 46.6°F8.1°C 37.9°F3.3°C 72% 1.0 mph N1.6 kmh N 4.0 mph6.4 kmh 30.17 in1021.7 mb 0.00 in0.0 mm 0.00 in0.0 mm 0.00 in0.0 mm
10:48 PM 46.6°F8.1°C 37.9°F3.3°C 72% Calm Calm 3.0 mph4.8 kmh 30.16 in1021.3 mb 0.00 in0.0 mm 0.00 in0.0 mm 0.00 in0.0 mm
10:55 PM 46.6°F8.1°C 37.9°F3.3°C 72% 1.0 mph N1.6 kmh N 4.0 mph6.4 kmh 30.16 in1021.3 mb 0.00 in0.0 mm 0.00 in0.0 mm 0.00 in0.0 mm
11:02 PM 46.6°F8.1°C 37.9°F3.3°C 72% Calm Calm 4.0 mph6.4 kmh 30.16 in1021.3 mb 0.00 in0.0 mm 0.00 in0.0 mm 0.00 in0.0 mm
11:09 PM 46.4°F8.0°C 37.9°F3.3°C 72% Calm Calm 4.0 mph6.4 kmh 30.16 in1021.3 mb 0.00 in0.0 mm 0.00 in0.0 mm 0.00 in0.0 mm
11:16 PM 46.4°F8.0°C 37.9°F3.3°C 72% Calm Calm 4.0 mph6.4 kmh 30.16 in1021.3 mb 0.00 in0.0 mm 0.00 in0.0 mm 0.00 in0.0 mm
11:23 PM 46.4°F8.0°C 37.9°F3.3°C 72% Calm Calm 3.0 mph4.8 kmh 30.17 in1021.7 mb 0.00 in0.0 mm 0.00 in0.0 mm 0.00 in0.0 mm
11:30 PM 46.4°F8.0°C 37.9°F3.3°C 72% 1.0 mph N1.6 kmh N 4.0 mph6.4 kmh 30.17 in1021.7 mb 0.00 in0.0 mm 0.00 in0.0 mm 0.00 in0.0 mm
11:37 PM 46.4°F8.0°C 37.9°F3.3°C 72% 3.0 mph N4.8 kmh N 5.0 mph8.0 kmh 30.18 in1022.0 mb 0.00 in0.0 mm 0.00 in0.0 mm 0.00 in0.0 mm
11:44 PM 46.4°F8.0°C 37.9°F3.3°C 72% 3.0 mph N4.8 kmh N 8.0 mph12.9 kmh 30.18 in1022.0 mb 0.00 in0.0 mm 0.00 in0.0 mm 0.00 in0.0 mm
11:51 PM 46.4°F8.0°C 37.9°F3.3°C 72% 3.0 mph N4.8 kmh N 5.0 mph8.0 kmh 30.18 in1022.0 mb 0.00 in0.0 mm 0.00 in0.0 mm 0.00 in0.0 mm
11:58 PM 46.2°F7.9°C 37.8°F3.2°C 72% 3.0 mph N4.8 kmh N 7.0 mph11.3 kmh 30.18 in1022.0 mb 0.00 in0.0 mm 0.00 in0.0 mm 0.00 in0.0 mm